Terminal Aerodrome Forecast
Issued by NWS Cleveland, OH

Home | Current Version | Previous Version | Graphics & Text | Print | Product List | Glossary On
Versions: 1 2 3 4 5 6 7 8 9 10 11 12 13 14 15 16 17 18 19 20 21 22 23 24 25
000
FTUS41 KCLE 261700 RRA
TAFERI
TAF
KERI 261741Z 2618/2718 05014KT 2SM -SN BKN020 OVC035
      TEMPO 2619/2623 3SM -SN SCT020 OVC035
     FM262300 04010KT 2SM -SN OVC012=

USA.gov is the U.S. government's official web portal to all federal, state and local government web resources and services.